sensor_id;sensor_type;location;lat;lon;timestamp;temperature;humidity
17998;DHT22;9124;48.144;17.098;2023-08-30T00:00:39;14.50;99.90
17998;DHT22;9124;48.144;17.098;2023-08-30T00:05:06;14.50;99.90
17998;DHT22;9124;48.144;17.098;2023-08-30T00:09:32;14.40;99.90
17998;DHT22;9124;48.144;17.098;2023-08-30T00:14:06;14.40;99.90
17998;DHT22;9124;48.144;17.098;2023-08-30T00:18:32;14.30;99.90
17998;DHT22;9124;48.144;17.098;2023-08-30T00:22:59;14.30;99.90
17998;DHT22;9124;48.144;17.098;2023-08-30T00:27:25;14.30;99.90
17998;DHT22;9124;48.144;17.098;2023-08-30T00:31:52;14.30;99.90
17998;DHT22;9124;48.144;17.098;2023-08-30T00:36:18;14.30;99.90
17998;DHT22;9124;48.144;17.098;2023-08-30T00:40:45;14.30;99.90
17998;DHT22;9124;48.144;17.098;2023-08-30T00:45:11;14.30;99.90
17998;DHT22;9124;48.144;17.098;2023-08-30T00:49:38;14.40;99.90
17998;DHT22;9124;48.144;17.098;2023-08-30T00:54:04;14.40;99.90
17998;DHT22;9124;48.144;17.098;2023-08-30T00:58:32;14.40;99.90
17998;DHT22;9124;48.144;17.098;2023-08-30T01:02:59;14.50;99.90
17998;DHT22;9124;48.144;17.098;2023-08-30T01:07:27;14.50;99.90
17998;DHT22;9124;48.144;17.098;2023-08-30T01:12:13;14.40;99.90
17998;DHT22;9124;48.144;17.098;2023-08-30T01:16:43;14.40;99.90
17998;DHT22;9124;48.144;17.098;2023-08-30T01:21:18;14.40;99.90
17998;DHT22;9124;48.144;17.098;2023-08-30T01:26:15;14.40;99.90
17998;DHT22;9124;48.144;17.098;2023-08-30T01:30:48;14.40;99.90
17998;DHT22;9124;48.144;17.098;2023-08-30T01:35:14;14.50;99.90
17998;DHT22;9124;48.144;17.098;2023-08-30T01:39:45;14.60;99.90
17998;DHT22;9124;48.144;17.098;2023-08-30T01:44:14;14.70;99.90
17998;DHT22;9124;48.144;17.098;2023-08-30T01:48:43;14.80;99.90
17998;DHT22;9124;48.144;17.098;2023-08-30T01:53:13;14.80;99.90
17998;DHT22;9124;48.144;17.098;2023-08-30T01:57:40;14.90;99.90
17998;DHT22;9124;48.144;17.098;2023-08-30T02:02:06;14.90;99.90
17998;DHT22;9124;48.144;17.098;2023-08-30T02:06:42;14.90;99.90
17998;DHT22;9124;48.144;17.098;2023-08-30T02:11:14;14.90;99.90
17998;DHT22;9124;48.144;17.098;2023-08-30T02:15:43;15.00;99.90
17998;DHT22;9124;48.144;17.098;2023-08-30T02:20:10;15.00;99.90
17998;DHT22;9124;48.144;17.098;2023-08-30T02:24:36;15.00;99.90
17998;DHT22;9124;48.144;17.098;2023-08-30T02:29:02;15.00;99.90
17998;DHT22;9124;48.144;17.098;2023-08-30T02:33:29;15.00;99.90
17998;DHT22;9124;48.144;17.098;2023-08-30T02:37:55;14.90;99.90
17998;DHT22;9124;48.144;17.098;2023-08-30T02:42:22;14.90;99.90
17998;DHT22;9124;48.144;17.098;2023-08-30T02:46:49;14.90;99.90
17998;DHT22;9124;48.144;17.098;2023-08-30T02:51:15;15.00;99.90
17998;DHT22;9124;48.144;17.098;2023-08-30T02:55:43;15.00;99.90
17998;DHT22;9124;48.144;17.098;2023-08-30T03:00:09;15.00;99.90
17998;DHT22;9124;48.144;17.098;2023-08-30T03:04:36;15.00;99.90
17998;DHT22;9124;48.144;17.098;2023-08-30T03:09:04;15.10;99.90
17998;DHT22;9124;48.144;17.098;2023-08-30T03:13:36;15.10;99.90
17998;DHT22;9124;48.144;17.098;2023-08-30T03:18:03;15.20;99.90
17998;DHT22;9124;48.144;17.098;2023-08-30T03:22:31;15.30;99.90
17998;DHT22;9124;48.144;17.098;2023-08-30T03:26:58;15.30;99.90
17998;DHT22;9124;48.144;17.098;2023-08-30T03:31:26;15.30;99.90
17998;DHT22;9124;48.144;17.098;2023-08-30T03:35:52;15.40;99.90
17998;DHT22;9124;48.144;17.098;2023-08-30T03:40:18;15.40;99.90
17998;DHT22;9124;48.144;17.098;2023-08-30T03:44:45;15.40;99.90
17998;DHT22;9124;48.144;17.098;2023-08-30T03:49:12;15.40;99.90
17998;DHT22;9124;48.144;17.098;2023-08-30T03:53:41;15.50;99.90
17998;DHT22;9124;48.144;17.098;2023-08-30T03:58:08;15.40;99.90
17998;DHT22;9124;48.144;17.098;2023-08-30T04:02:34;15.40;99.90
17998;DHT22;9124;48.144;17.098;2023-08-30T04:07:01;15.40;99.90
17998;DHT22;9124;48.144;17.098;2023-08-30T04:11:28;15.40;99.90
17998;DHT22;9124;48.144;17.098;2023-08-30T04:15:55;15.40;99.90
17998;DHT22;9124;48.144;17.098;2023-08-30T04:20:23;15.30;99.90
17998;DHT22;9124;48.144;17.098;2023-08-30T04:24:49;15.30;99.90
17998;DHT22;9124;48.144;17.098;2023-08-30T04:29:18;15.30;99.90
17998;DHT22;9124;48.144;17.098;2023-08-30T04:33:45;15.30;99.90
17998;DHT22;9124;48.144;17.098;2023-08-30T04:38:11;15.30;99.90
17998;DHT22;9124;48.144;17.098;2023-08-30T04:42:38;15.40;99.90
17998;DHT22;9124;48.144;17.098;2023-08-30T04:47:06;15.40;99.90
17998;DHT22;9124;48.144;17.098;2023-08-30T04:51:34;15.50;99.90
17998;DHT22;9124;48.144;17.098;2023-08-30T04:56:00;15.50;99.90
17998;DHT22;9124;48.144;17.098;2023-08-30T05:00:35;15.60;99.90
17998;DHT22;9124;48.144;17.098;2023-08-30T05:05:03;15.70;99.90
17998;DHT22;9124;48.144;17.098;2023-08-30T05:09:30;15.80;99.90
17998;DHT22;9124;48.144;17.098;2023-08-30T05:13:59;15.80;99.90
17998;DHT22;9124;48.144;17.098;2023-08-30T05:18:25;15.80;99.90
17998;DHT22;9124;48.144;17.098;2023-08-30T05:22:51;15.80;99.90
17998;DHT22;9124;48.144;17.098;2023-08-30T05:27:18;16.00;99.90
17998;DHT22;9124;48.144;17.098;2023-08-30T05:31:45;16.30;99.90
17998;DHT22;9124;48.144;17.098;2023-08-30T05:36:27;16.60;99.90
17998;DHT22;9124;48.144;17.098;2023-08-30T05:41:02;17.00;99.90
17998;DHT22;9124;48.144;17.098;2023-08-30T05:45:29;17.20;99.90
17998;DHT22;9124;48.144;17.098;2023-08-30T05:49:56;17.20;99.90
17998;DHT22;9124;48.144;17.098;2023-08-30T05:54:22;17.30;99.90
17998;DHT22;9124;48.144;17.098;2023-08-30T05:58:52;17.40;99.90
17998;DHT22;9124;48.144;17.098;2023-08-30T06:03:44;17.40;99.90
17998;DHT22;9124;48.144;17.098;2023-08-30T06:08:11;17.50;99.90
17998;DHT22;9124;48.144;17.098;2023-08-30T06:12:38;17.70;99.90
17998;DHT22;9124;48.144;17.098;2023-08-30T06:17:04;18.00;99.90
17998;DHT22;9124;48.144;17.098;2023-08-30T06:21:31;18.40;99.90
17998;DHT22;9124;48.144;17.098;2023-08-30T06:25:57;18.70;99.90
17998;DHT22;9124;48.144;17.098;2023-08-30T06:30:30;19.00;99.90
17998;DHT22;9124;48.144;17.098;2023-08-30T06:34:56;19.10;99.90
17998;DHT22;9124;48.144;17.098;2023-08-30T06:39:22;19.20;99.90
17998;DHT22;9124;48.144;17.098;2023-08-30T06:43:49;19.50;99.90
17998;DHT22;9124;48.144;17.098;2023-08-30T06:48:15;19.90;99.90
17998;DHT22;9124;48.144;17.098;2023-08-30T06:52:41;20.60;99.90
17998;DHT22;9124;48.144;17.098;2023-08-30T06:57:08;21.60;99.90
17998;DHT22;9124;48.144;17.098;2023-08-30T07:01:35;23.10;99.90
17998;DHT22;9124;48.144;17.098;2023-08-30T07:06:01;23.80;99.90
17998;DHT22;9124;48.144;17.098;2023-08-30T07:10:28;24.00;99.90
17998;DHT22;9124;48.144;17.098;2023-08-30T07:14:55;23.10;99.90
17998;DHT22;9124;48.144;17.098;2023-08-30T07:19:21;22.90;99.90
17998;DHT22;9124;48.144;17.098;2023-08-30T07:23:48;22.40;98.50
17998;DHT22;9124;48.144;17.098;2023-08-30T07:28:14;22.70;98.70
17998;DHT22;9124;48.144;17.098;2023-08-30T07:32:53;22.40;96.50
17998;DHT22;9124;48.144;17.098;2023-08-30T07:43:39;24.30;97.20
17998;DHT22;9124;48.144;17.098;2023-08-30T07:48:05;25.50;92.30
17998;DHT22;9124;48.144;17.098;2023-08-30T07:52:31;27.60;92.30
17998;DHT22;9124;48.144;17.098;2023-08-30T07:56:58;30.70;82.40
17998;DHT22;9124;48.144;17.098;2023-08-30T08:01:24;32.30;73.20
17998;DHT22;9124;48.144;17.098;2023-08-30T08:05:50;33.50;61.70
17998;DHT22;9124;48.144;17.098;2023-08-30T08:10:17;30.70;56.60
17998;DHT22;9124;48.144;17.098;2023-08-30T08:14:43;29.00;58.20
17998;DHT22;9124;48.144;17.098;2023-08-30T08:19:10;28.40;58.70
17998;DHT22;9124;48.144;17.098;2023-08-30T08:23:36;27.70;58.40
17998;DHT22;9124;48.144;17.098;2023-08-30T08:28:02;26.20;58.80
17998;DHT22;9124;48.144;17.098;2023-08-30T08:32:30;24.70;61.00
17998;DHT22;9124;48.144;17.098;2023-08-30T08:36:59;23.60;63.10
17998;DHT22;9124;48.144;17.098;2023-08-30T08:41:31;23.10;64.90
17998;DHT22;9124;48.144;17.098;2023-08-30T08:46:00;22.50;66.10
17998;DHT22;9124;48.144;17.098;2023-08-30T08:50:28;22.10;67.30
17998;DHT22;9124;48.144;17.098;2023-08-30T08:54:55;21.90;68.40
17998;DHT22;9124;48.144;17.098;2023-08-30T08:59:24;21.80;69.30
17998;DHT22;9124;48.144;17.098;2023-08-30T09:03:51;21.60;70.10
17998;DHT22;9124;48.144;17.098;2023-08-30T09:08:17;21.40;70.40
17998;DHT22;9124;48.144;17.098;2023-08-30T09:12:44;21.30;71.10
17998;DHT22;9124;48.144;17.098;2023-08-30T09:17:10;21.80;72.10
17998;DHT22;9124;48.144;17.098;2023-08-30T09:21:36;22.30;72.20
17998;DHT22;9124;48.144;17.098;2023-08-30T09:26:02;22.60;71.30
17998;DHT22;9124;48.144;17.098;2023-08-30T09:30:30;23.10;71.30
17998;DHT22;9124;48.144;17.098;2023-08-30T09:34:57;23.80;71.00
17998;DHT22;9124;48.144;17.098;2023-08-30T09:39:24;23.80;69.40
17998;DHT22;9124;48.144;17.098;2023-08-30T09:49:34;24.90;68.80
17998;DHT22;9124;48.144;17.098;2023-08-30T09:54:05;25.80;67.90
17998;DHT22;9124;48.144;17.098;2023-08-30T09:58:32;27.70;66.40
17998;DHT22;9124;48.144;17.098;2023-08-30T10:02:59;29.90;63.80
17998;DHT22;9124;48.144;17.098;2023-08-30T10:07:26;30.40;59.00
17998;DHT22;9124;48.144;17.098;2023-08-30T10:11:53;30.20;56.50
17998;DHT22;9124;48.144;17.098;2023-08-30T10:16:22;29.50;55.60
17998;DHT22;9124;48.144;17.098;2023-08-30T10:20:54;29.50;55.90
17998;DHT22;9124;48.144;17.098;2023-08-30T10:25:24;29.30;55.00
17998;DHT22;9124;48.144;17.098;2023-08-30T10:29:53;28.40;54.60
17998;DHT22;9124;48.144;17.098;2023-08-30T10:34:20;27.50;55.40
17998;DHT22;9124;48.144;17.098;2023-08-30T10:38:54;27.10;56.00
17998;DHT22;9124;48.144;17.098;2023-08-30T10:43:31;26.80;56.60
17998;DHT22;9124;48.144;17.098;2023-08-30T10:48:00;26.00;56.80
17998;DHT22;9124;48.144;17.098;2023-08-30T10:52:27;25.10;57.60
17998;DHT22;9124;48.144;17.098;2023-08-30T10:56:58;25.10;59.50
17998;DHT22;9124;48.144;17.098;2023-08-30T11:01:28;25.50;59.70
17998;DHT22;9124;48.144;17.098;2023-08-30T11:05:55;25.60;59.70
17998;DHT22;9124;48.144;17.098;2023-08-30T11:10:23;25.30;59.20
17998;DHT22;9124;48.144;17.098;2023-08-30T11:14:50;24.40;60.00
17998;DHT22;9124;48.144;17.098;2023-08-30T11:19:17;23.90;60.80
17998;DHT22;9124;48.144;17.098;2023-08-30T11:23:44;23.70;62.10
17998;DHT22;9124;48.144;17.098;2023-08-30T11:28:11;23.90;63.00
17998;DHT22;9124;48.144;17.098;2023-08-30T11:32:52;23.90;63.00
17998;DHT22;9124;48.144;17.098;2023-08-30T11:37:46;23.40;62.60
17998;DHT22;9124;48.144;17.098;2023-08-30T11:42:28;22.70;63.30
17998;DHT22;9124;48.144;17.098;2023-08-30T11:47:00;22.50;64.80
17998;DHT22;9124;48.144;17.098;2023-08-30T11:51:26;22.50;65.30
17998;DHT22;9124;48.144;17.098;2023-08-30T11:55:53;22.40;65.80
17998;DHT22;9124;48.144;17.098;2023-08-30T12:00:20;22.40;66.10
17998;DHT22;9124;48.144;17.098;2023-08-30T12:04:47;22.30;66.40
17998;DHT22;9124;48.144;17.098;2023-08-30T12:09:13;22.20;66.60
17998;DHT22;9124;48.144;17.098;2023-08-30T12:13:39;22.40;67.70
17998;DHT22;9124;48.144;17.098;2023-08-30T12:18:06;22.40;67.40
17998;DHT22;9124;48.144;17.098;2023-08-30T12:22:39;22.30;67.00
17998;DHT22;9124;48.144;17.098;2023-08-30T12:27:06;22.10;67.00
17998;DHT22;9124;48.144;17.098;2023-08-30T12:31:33;22.30;67.30
17998;DHT22;9124;48.144;17.098;2023-08-30T12:35:59;22.70;67.30
17998;DHT22;9124;48.144;17.098;2023-08-30T12:40:26;22.70;66.90
17998;DHT22;9124;48.144;17.098;2023-08-30T12:44:52;22.80;67.10
17998;DHT22;9124;48.144;17.098;2023-08-30T12:49:18;23.10;67.20
17998;DHT22;9124;48.144;17.098;2023-08-30T12:53:44;23.10;66.80
17998;DHT22;9124;48.144;17.098;2023-08-30T12:58:11;23.00;66.40
17998;DHT22;9124;48.144;17.098;2023-08-30T13:02:37;22.80;66.30
17998;DHT22;9124;48.144;17.098;2023-08-30T13:07:05;22.70;66.70
17998;DHT22;9124;48.144;17.098;2023-08-30T13:11:31;22.60;67.40
17998;DHT22;9124;48.144;17.098;2023-08-30T13:15:58;22.70;67.30
17998;DHT22;9124;48.144;17.098;2023-08-30T13:20:25;22.50;67.30
17998;DHT22;9124;48.144;17.098;2023-08-30T13:24:52;22.60;67.50
17998;DHT22;9124;48.144;17.098;2023-08-30T13:29:20;22.70;67.40
17998;DHT22;9124;48.144;17.098;2023-08-30T13:33:47;22.50;67.00
17998;DHT22;9124;48.144;17.098;2023-08-30T13:38:17;22.60;67.30
17998;DHT22;9124;48.144;17.098;2023-08-30T13:42:44;22.70;67.10
17998;DHT22;9124;48.144;17.098;2023-08-30T13:47:10;22.70;67.00
17998;DHT22;9124;48.144;17.098;2023-08-30T13:52:02;22.60;66.80
17998;DHT22;9124;48.144;17.098;2023-08-30T13:56:37;22.50;67.00
17998;DHT22;9124;48.144;17.098;2023-08-30T14:01:05;22.70;67.70
17998;DHT22;9124;48.144;17.098;2023-08-30T14:05:31;22.70;67.30
17998;DHT22;9124;48.144;17.098;2023-08-30T14:09:58;22.70;67.40
17998;DHT22;9124;48.144;17.098;2023-08-30T14:14:24;22.60;67.40
17998;DHT22;9124;48.144;17.098;2023-08-30T14:18:51;22.60;67.60
17998;DHT22;9124;48.144;17.098;2023-08-30T14:23:17;22.60;67.70
17998;DHT22;9124;48.144;17.098;2023-08-30T14:27:43;22.70;67.70
17998;DHT22;9124;48.144;17.098;2023-08-30T14:32:10;22.70;67.80
17998;DHT22;9124;48.144;17.098;2023-08-30T14:36:36;22.70;68.00
17998;DHT22;9124;48.144;17.098;2023-08-30T14:41:03;22.70;68.50
17998;DHT22;9124;48.144;17.098;2023-08-30T14:45:30;22.60;68.00
17998;DHT22;9124;48.144;17.098;2023-08-30T14:49:56;22.40;67.80
17998;DHT22;9124;48.144;17.098;2023-08-30T14:54:23;22.10;68.10
17998;DHT22;9124;48.144;17.098;2023-08-30T14:58:49;21.70;68.40
17998;DHT22;9124;48.144;17.098;2023-08-30T15:03:17;21.30;69.00
17998;DHT22;9124;48.144;17.098;2023-08-30T15:07:43;21.10;69.80
17998;DHT22;9124;48.144;17.098;2023-08-30T15:12:09;20.80;70.60
17998;DHT22;9124;48.144;17.098;2023-08-30T15:16:36;20.70;71.30
17998;DHT22;9124;48.144;17.098;2023-08-30T15:21:02;20.60;71.90
17998;DHT22;9124;48.144;17.098;2023-08-30T15:25:28;20.50;72.30
17998;DHT22;9124;48.144;17.098;2023-08-30T15:29:55;20.40;72.70
17998;DHT22;9124;48.144;17.098;2023-08-30T15:34:22;20.20;72.90
17998;DHT22;9124;48.144;17.098;2023-08-30T15:38:48;20.10;73.40
17998;DHT22;9124;48.144;17.098;2023-08-30T15:43:15;19.90;73.80
17998;DHT22;9124;48.144;17.098;2023-08-30T15:47:42;19.90;74.40
17998;DHT22;9124;48.144;17.098;2023-08-30T15:52:08;19.80;74.90
17998;DHT22;9124;48.144;17.098;2023-08-30T15:56:35;19.80;75.60
17998;DHT22;9124;48.144;17.098;2023-08-30T16:01:03;19.80;76.10
17998;DHT22;9124;48.144;17.098;2023-08-30T16:05:56;19.70;76.50
17998;DHT22;9124;48.144;17.098;2023-08-30T16:10:22;19.50;76.40
17998;DHT22;9124;48.144;17.098;2023-08-30T16:20:09;19.50;77.40
17998;DHT22;9124;48.144;17.098;2023-08-30T16:24:36;19.30;77.80
17998;DHT22;9124;48.144;17.098;2023-08-30T16:29:02;19.10;78.30
17998;DHT22;9124;48.144;17.098;2023-08-30T16:33:30;19.00;79.00
17998;DHT22;9124;48.144;17.098;2023-08-30T16:37:57;18.80;80.30
17998;DHT22;9124;48.144;17.098;2023-08-30T16:42:23;18.70;80.40
17998;DHT22;9124;48.144;17.098;2023-08-30T16:46:50;18.50;81.20
17998;DHT22;9124;48.144;17.098;2023-08-30T16:51:17;18.40;81.90
17998;DHT22;9124;48.144;17.098;2023-08-30T16:55:44;18.20;82.70
17998;DHT22;9124;48.144;17.098;2023-08-30T17:00:11;18.10;83.50
17998;DHT22;9124;48.144;17.098;2023-08-30T17:04:38;18.00;84.40
17998;DHT22;9124;48.144;17.098;2023-08-30T17:09:05;17.80;85.20
17998;DHT22;9124;48.144;17.098;2023-08-30T17:13:32;17.80;86.50
17998;DHT22;9124;48.144;17.098;2023-08-30T17:17:59;17.70;87.60
17998;DHT22;9124;48.144;17.098;2023-08-30T17:22:25;17.60;88.30
17998;DHT22;9124;48.144;17.098;2023-08-30T17:26:51;17.50;89.40
17998;DHT22;9124;48.144;17.098;2023-08-30T17:31:18;17.40;90.20
17998;DHT22;9124;48.144;17.098;2023-08-30T17:35:52;17.20;90.60
17998;DHT22;9124;48.144;17.098;2023-08-30T17:40:20;17.20;91.30
17998;DHT22;9124;48.144;17.098;2023-08-30T17:44:46;17.10;91.80
17998;DHT22;9124;48.144;17.098;2023-08-30T17:49:14;17.00;92.30
17998;DHT22;9124;48.144;17.098;2023-08-30T17:53:40;17.00;93.00
17998;DHT22;9124;48.144;17.098;2023-08-30T17:58:07;16.90;93.70
17998;DHT22;9124;48.144;17.098;2023-08-30T18:02:34;16.90;94.20
17998;DHT22;9124;48.144;17.098;2023-08-30T18:07:01;16.80;94.80
17998;DHT22;9124;48.144;17.098;2023-08-30T18:11:29;16.80;95.40
17998;DHT22;9124;48.144;17.098;2023-08-30T18:15:55;16.70;96.00
17998;DHT22;9124;48.144;17.098;2023-08-30T18:20:22;16.70;96.70
17998;DHT22;9124;48.144;17.098;2023-08-30T18:24:50;16.60;97.20
17998;DHT22;9124;48.144;17.098;2023-08-30T18:29:17;16.60;97.90
17998;DHT22;9124;48.144;17.098;2023-08-30T18:33:46;16.50;98.50
17998;DHT22;9124;48.144;17.098;2023-08-30T18:38:12;16.40;99.00
17998;DHT22;9124;48.144;17.098;2023-08-30T18:43:04;16.40;99.70
17998;DHT22;9124;48.144;17.098;2023-08-30T18:52:38;16.20;99.90
17998;DHT22;9124;48.144;17.098;2023-08-30T18:57:05;16.20;99.90
17998;DHT22;9124;48.144;17.098;2023-08-30T19:01:31;16.10;99.90
17998;DHT22;9124;48.144;17.098;2023-08-30T19:05:58;16.10;99.90
17998;DHT22;9124;48.144;17.098;2023-08-30T19:10:25;16.00;99.90
17998;DHT22;9124;48.144;17.098;2023-08-30T19:14:51;16.00;99.90
17998;DHT22;9124;48.144;17.098;2023-08-30T19:19:17;15.90;99.90
17998;DHT22;9124;48.144;17.098;2023-08-30T19:23:43;15.80;99.90
17998;DHT22;9124;48.144;17.098;2023-08-30T19:28:11;15.80;99.90
17998;DHT22;9124;48.144;17.098;2023-08-30T19:32:38;15.80;99.90
17998;DHT22;9124;48.144;17.098;2023-08-30T19:37:05;15.80;99.90
17998;DHT22;9124;48.144;17.098;2023-08-30T19:41:36;15.80;99.90
17998;DHT22;9124;48.144;17.098;2023-08-30T19:46:05;15.80;99.90
17998;DHT22;9124;48.144;17.098;2023-08-30T19:50:33;15.70;99.90
17998;DHT22;9124;48.144;17.098;2023-08-30T19:55:00;15.60;99.90
17998;DHT22;9124;48.144;17.098;2023-08-30T19:59:26;15.50;99.90
17998;DHT22;9124;48.144;17.098;2023-08-30T20:03:52;15.40;99.90
17998;DHT22;9124;48.144;17.098;2023-08-30T20:08:21;15.30;99.90
17998;DHT22;9124;48.144;17.098;2023-08-30T20:12:49;15.30;99.90
17998;DHT22;9124;48.144;17.098;2023-08-30T20:17:15;15.20;99.90
17998;DHT22;9124;48.144;17.098;2023-08-30T20:21:43;15.20;99.90
17998;DHT22;9124;48.144;17.098;2023-08-30T20:26:10;15.30;99.90
17998;DHT22;9124;48.144;17.098;2023-08-30T20:31:03;15.30;99.90
17998;DHT22;9124;48.144;17.098;2023-08-30T20:35:48;15.20;99.90
17998;DHT22;9124;48.144;17.098;2023-08-30T20:40:15;15.30;99.90
17998;DHT22;9124;48.144;17.098;2023-08-30T20:44:41;15.20;99.90
17998;DHT22;9124;48.144;17.098;2023-08-30T20:49:08;15.10;99.90
17998;DHT22;9124;48.144;17.098;2023-08-30T20:53:36;15.00;99.90
17998;DHT22;9124;48.144;17.098;2023-08-30T20:58:03;14.90;99.90
17998;DHT22;9124;48.144;17.098;2023-08-30T21:02:30;14.80;99.90
17998;DHT22;9124;48.144;17.098;2023-08-30T21:06:59;14.90;99.90
17998;DHT22;9124;48.144;17.098;2023-08-30T21:11:25;14.90;99.90
17998;DHT22;9124;48.144;17.098;2023-08-30T21:15:51;14.80;99.90
17998;DHT22;9124;48.144;17.098;2023-08-30T21:20:17;14.70;99.90
17998;DHT22;9124;48.144;17.098;2023-08-30T21:24:44;14.70;99.90
17998;DHT22;9124;48.144;17.098;2023-08-30T21:29:10;14.60;99.90
17998;DHT22;9124;48.144;17.098;2023-08-30T21:33:36;14.50;99.90
17998;DHT22;9124;48.144;17.098;2023-08-30T21:38:03;14.50;99.90
17998;DHT22;9124;48.144;17.098;2023-08-30T21:42:30;14.50;99.90
17998;DHT22;9124;48.144;17.098;2023-08-30T21:46:56;14.40;99.90
17998;DHT22;9124;48.144;17.098;2023-08-30T21:51:22;14.40;99.90
17998;DHT22;9124;48.144;17.098;2023-08-30T21:55:49;14.30;99.90
17998;DHT22;9124;48.144;17.098;2023-08-30T22:00:16;14.30;99.90
17998;DHT22;9124;48.144;17.098;2023-08-30T22:05:01;14.30;99.90
17998;DHT22;9124;48.144;17.098;2023-08-30T22:09:28;14.30;99.90
17998;DHT22;9124;48.144;17.098;2023-08-30T22:14:20;14.20;99.90
17998;DHT22;9124;48.144;17.098;2023-08-30T22:24:58;14.20;99.90
17998;DHT22;9124;48.144;17.098;2023-08-30T22:29:25;14.10;99.90
17998;DHT22;9124;48.144;17.098;2023-08-30T22:33:51;14.10;99.90
17998;DHT22;9124;48.144;17.098;2023-08-30T22:38:18;14.10;99.90
17998;DHT22;9124;48.144;17.098;2023-08-30T22:42:44;14.10;99.90
17998;DHT22;9124;48.144;17.098;2023-08-30T22:47:10;14.10;99.90
17998;DHT22;9124;48.144;17.098;2023-08-30T22:51:37;14.20;99.90
17998;DHT22;9124;48.144;17.098;2023-08-30T22:56:04;14.20;99.90
17998;DHT22;9124;48.144;17.098;2023-08-30T23:00:31;14.20;99.90
17998;DHT22;9124;48.144;17.098;2023-08-30T23:04:57;14.40;99.90
17998;DHT22;9124;48.144;17.098;2023-08-30T23:09:23;14.50;99.90
17998;DHT22;9124;48.144;17.098;2023-08-30T23:13:50;14.60;99.90
17998;DHT22;9124;48.144;17.098;2023-08-30T23:18:16;14.70;99.90
17998;DHT22;9124;48.144;17.098;2023-08-30T23:22:43;14.90;99.90
17998;DHT22;9124;48.144;17.098;2023-08-30T23:27:10;14.90;99.90
17998;DHT22;9124;48.144;17.098;2023-08-30T23:31:36;15.00;99.90
17998;DHT22;9124;48.144;17.098;2023-08-30T23:36:03;15.10;99.90
17998;DHT22;9124;48.144;17.098;2023-08-30T23:40:29;15.10;99.90
17998;DHT22;9124;48.144;17.098;2023-08-30T23:44:56;15.20;99.90
17998;DHT22;9124;48.144;17.098;2023-08-30T23:49:22;15.20;99.90
17998;DHT22;9124;48.144;17.098;2023-08-30T23:53:49;15.20;99.90
17998;DHT22;9124;48.144;17.098;2023-08-30T23:58:17;15.20;99.90
